Time;durP1;ratioP1;P1;durP2;ratioP2;P2;SDS_P1;SDS_P2;PMS_P1;PMS_P2;Temp;Humidity;BMP_temperature;BMP_pressure;BME280_temperature;BME280_humidity;BME280_pressure;Samples;Min_cycle;Max_cycle;Signal;HPM_P1;HPM_P2
2022/09/07 00:00:02;;;;;;;14.33;10.07;;;20.50;40.10;;;;;;5082789;28;20456;-66
2022/09/07 00:02:29;;;;;;;12.17;9.00;;;20.50;40.10;;;;;;5081701;28;20479;-66
2022/09/07 00:04:57;;;;;;;15.97;9.43;;;20.40;40.00;;;;;;5082075;28;20468;-66
2022/09/07 00:07:24;;;;;;;17.87;10.13;;;20.40;40.10;;;;;;5083840;28;20544;-68
2022/09/07 00:09:51;;;;;;;16.97;10.53;;;20.40;39.90;;;;;;5078746;28;20448;-67
2022/09/07 00:12:17;;;;;;;16.00;9.47;;;20.40;39.70;;;;;;5078611;28;20457;-67
2022/09/07 00:14:44;;;;;;;12.73;9.90;;;20.40;39.80;;;;;;5080707;28;20477;-67
2022/09/07 00:17:11;;;;;;;16.40;9.97;;;20.40;39.70;;;;;;5089237;28;20456;-67
2022/09/07 00:19:38;;;;;;;15.17;10.73;;;20.40;39.70;;;;;;5081821;28;20460;-67
2022/09/07 00:22:06;;;;;;;16.03;10.30;;;20.30;39.80;;;;;;5086826;28;20799;-67
2022/09/07 00:24:33;;;;;;;13.53;10.03;;;20.30;39.80;;;;;;5081008;28;20480;-67
2022/09/07 00:29:39;;;;;;;13.80;9.03;;;20.40;40.00;;;;;;5017457;28;20479;-63
2022/09/07 00:32:05;;;;;;;14.23;10.20;;;20.40;40.00;;;;;;4987542;28;20487;-63
2022/09/07 00:34:32;;;;;;;14.30;10.10;;;20.40;40.00;;;;;;4988320;28;20469;-62
2022/09/07 00:36:59;;;;;;;13.20;9.70;;;20.40;40.00;;;;;;4987546;28;20461;-60
2022/09/07 00:39:27;;;;;;;14.50;9.10;;;20.30;39.80;;;;;;4999302;28;20488;-60
2022/09/07 00:41:54;;;;;;;15.73;9.50;;;20.30;39.80;;;;;;4999137;28;20461;-63
2022/09/07 00:45:09;;;;;;;15.17;9.87;;;20.30;39.70;;;;;;5018677;28;20467;-63
2022/09/07 00:47:42;;;;;;;15.37;10.10;;;20.30;39.80;;;;;;5005432;28;20502;-63
2022/09/07 00:50:14;;;;;;;12.93;8.37;;;20.30;39.50;;;;;;5000389;28;20457;-63
2022/09/07 00:52:44;;;;;;;12.00;8.77;;;20.30;39.60;;;;;;5002138;28;20456;-63
2022/09/07 00:55:15;;;;;;;14.90;10.33;;;20.20;39.60;;;;;;5000937;28;20858;-62
2022/09/07 00:57:48;;;;;;;15.80;10.80;;;20.20;39.60;;;;;;5000452;28;21022;-63
2022/09/07 01:00:14;;;;;;;12.43;9.17;;;20.20;39.90;;;;;;5001809;28;20467;-63
2022/09/07 01:02:41;;;;;;;12.80;9.73;;;20.20;39.90;;;;;;5002905;28;20511;-63
2022/09/07 01:05:15;;;;;;;12.30;9.83;;;20.10;40.10;;;;;;5001354;28;20464;-63
2022/09/07 01:07:43;;;;;;;12.07;9.67;;;20.10;40.50;;;;;;5005364;28;20476;-61
2022/09/07 01:10:11;;;;;;;12.70;9.47;;;20.10;40.40;;;;;;5004971;28;20456;-62
2022/09/07 01:12:38;;;;;;;15.97;10.43;;;20.00;40.20;;;;;;4998325;28;20455;-61
2022/09/07 01:15:06;;;;;;;20.27;10.40;;;20.00;40.10;;;;;;5005849;28;20460;-63
2022/09/07 01:17:41;;;;;;;12.90;9.87;;;20.00;40.00;;;;;;5007125;28;20476;-63
2022/09/07 01:20:28;;;;;;;14.40;9.60;;;20.00;40.00;;;;;;5001799;28;20475;-62
2022/09/07 01:23:16;;;;;;;14.47;10.37;;;20.00;40.20;;;;;;5001976;28;20476;-62
2022/09/07 01:25:51;;;;;;;15.20;9.13;;;20.00;40.40;;;;;;5005800;28;20464;-63
2022/09/07 01:28:22;;;;;;;13.03;9.00;;;20.00;40.30;;;;;;5005066;28;20491;-62
2022/09/07 01:30:55;;;;;;;14.63;8.30;;;20.00;39.80;;;;;;4998364;28;20846;-63
2022/09/07 01:33:36;;;;;;;11.77;7.60;;;20.00;39.60;;;;;;4998214;28;20616;-62
2022/09/07 01:36:17;;;;;;;15.77;8.93;;;20.00;39.60;;;;;;5006747;28;20459;-62
2022/09/07 01:38:46;;;;;;;15.13;8.87;;;20.00;39.30;;;;;;5002545;28;20566;-63
2022/09/07 01:41:18;;;;;;;12.70;8.47;;;20.00;39.20;;;;;;5005941;28;20462;-63
2022/09/07 01:43:52;;;;;;;13.70;10.20;;;20.00;39.20;;;;;;5003879;28;20491;-63
2022/09/07 01:46:24;;;;;;;13.03;10.10;;;20.00;39.60;;;;;;5004401;28;20986;-63
2022/09/07 01:48:54;;;;;;;12.23;10.10;;;20.00;39.80;;;;;;5000952;28;20991;-63
2022/09/07 01:51:22;;;;;;;15.30;10.50;;;19.90;40.20;;;;;;5005283;28;20464;-63
2022/09/07 01:53:52;;;;;;;13.17;9.67;;;19.90;40.60;;;;;;5003043;28;20479;-62
2022/09/07 01:56:23;;;;;;;15.93;10.00;;;19.90;40.30;;;;;;5002813;28;21148;-63
2022/09/07 01:58:54;;;;;;;12.73;10.27;;;19.90;40.30;;;;;;5004491;28;20484;-63
2022/09/07 02:01:28;;;;;;;13.90;11.50;;;19.90;40.30;;;;;;5000474;28;20479;-63
2022/09/07 02:03:58;;;;;;;14.23;10.93;;;19.80;40.60;;;;;;4993566;28;20491;-62
2022/09/07 02:06:33;;;;;;;16.90;11.20;;;19.90;40.70;;;;;;5003767;28;20463;-62
2022/09/07 02:09:04;;;;;;;14.13;11.40;;;19.90;40.60;;;;;;4998510;28;20483;-62
2022/09/07 02:11:37;;;;;;;16.30;12.43;;;19.90;41.00;;;;;;5003797;28;20455;-61
2022/09/07 02:14:09;;;;;;;16.20;11.40;;;19.90;41.10;;;;;;5001958;28;20459;-62
2022/09/07 02:16:42;;;;;;;14.70;11.33;;;19.90;41.20;;;;;;5002245;28;20491;-62
2022/09/07 02:19:12;;;;;;;16.83;11.43;;;19.90;41.00;;;;;;5003937;28;20487;-62
2022/09/07 02:21:43;;;;;;;15.60;10.97;;;19.90;41.10;;;;;;5004046;28;20471;-62
2022/09/07 02:24:15;;;;;;;19.70;11.87;;;19.90;40.80;;;;;;5005190;28;20574;-62
2022/09/07 02:26:45;;;;;;;18.70;12.77;;;19.90;41.00;;;;;;5003654;28;20463;-61
2022/09/07 02:29:14;;;;;;;16.93;11.33;;;19.90;41.20;;;;;;5003027;28;20494;-62
2022/09/07 02:31:41;;;;;;;13.43;11.47;;;19.90;41.20;;;;;;5003111;28;20478;-62
2022/09/07 02:34:08;;;;;;;17.57;10.33;;;19.90;41.50;;;;;;5004990;28;20456;-62
2022/09/07 02:36:39;;;;;;;14.30;11.37;;;19.80;41.20;;;;;;5002524;28;20910;-62
2022/09/07 02:39:06;;;;;;;15.13;10.53;;;19.80;41.30;;;;;;4998228;28;20471;-62
2022/09/07 02:41:35;;;;;;;16.80;11.70;;;19.80;41.70;;;;;;5004434;28;20452;-62
2022/09/07 02:44:07;;;;;;;18.23;11.87;;;19.80;41.70;;;;;;5000344;28;20479;-62
2022/09/07 02:46:52;;;;;;;14.07;11.67;;;19.80;41.60;;;;;;4998150;28;20526;-62
2022/09/07 02:49:30;;;;;;;15.47;11.93;;;19.70;41.70;;;;;;5001343;28;20479;-62
2022/09/07 02:52:08;;;;;;;17.33;11.97;;;19.70;41.60;;;;;;5005234;28;20855;-62
2022/09/07 02:54:45;;;;;;;17.90;12.13;;;19.70;41.60;;;;;;5001044;28;20463;-62
2022/09/07 02:57:20;;;;;;;21.00;12.13;;;19.80;41.70;;;;;;4995977;28;20460;-62
2022/09/07 02:59:59;;;;;;;17.03;11.70;;;19.80;41.50;;;;;;5000596;28;20970;-62
2022/09/07 03:02:31;;;;;;;13.10;10.87;;;19.70;41.60;;;;;;5002875;28;20487;-61
2022/09/07 03:05:05;;;;;;;18.30;11.40;;;19.80;41.40;;;;;;4996980;28;20476;-62
2022/09/07 03:07:36;;;;;;;15.00;10.80;;;19.80;41.40;;;;;;4998786;28;20484;-61
2022/09/07 03:10:05;;;;;;;16.37;11.47;;;19.80;41.30;;;;;;5001027;28;20465;-62
2022/09/07 03:12:40;;;;;;;18.33;12.33;;;19.80;41.30;;;;;;4999965;28;20828;-62
2022/09/07 03:15:10;;;;;;;13.50;11.70;;;19.80;41.40;;;;;;5000006;28;20466;-62
2022/09/07 03:17:38;;;;;;;16.93;10.90;;;19.80;41.30;;;;;;5003287;28;20518;-62
2022/09/07 03:20:06;;;;;;;20.20;12.20;;;19.80;41.20;;;;;;5000379;28;20981;-61
2022/09/07 03:22:33;;;;;;;16.57;12.70;;;19.80;41.40;;;;;;5003673;28;20975;-62
2022/09/07 03:25:03;;;;;;;18.87;12.70;;;19.80;41.70;;;;;;5004437;28;20501;-62
2022/09/07 03:27:29;;;;;;;17.10;14.67;;;19.80;41.60;;;;;;5001147;28;20842;-61
2022/09/07 03:29:56;;;;;;;19.87;14.73;;;19.80;41.60;;;;;;5000758;28;20460;-62
2022/09/07 03:32:23;;;;;;;18.90;13.73;;;19.80;41.70;;;;;;4998686;28;20480;-61
2022/09/07 03:34:51;;;;;;;18.10;15.10;;;19.80;41.60;;;;;;5003197;28;20463;-62
2022/09/07 03:37:18;;;;;;;17.60;14.20;;;19.80;41.80;;;;;;5003199;28;20467;-62
2022/09/07 03:39:44;;;;;;;16.80;14.07;;;19.80;41.70;;;;;;5001722;28;20456;-62
2022/09/07 03:42:11;;;;;;;17.07;13.70;;;19.80;41.50;;;;;;5000550;28;20490;-62
2022/09/07 03:44:38;;;;;;;23.63;15.40;;;19.70;41.60;;;;;;4998247;28;20487;-62
2022/09/07 03:47:05;;;;;;;22.97;15.70;;;19.70;41.40;;;;;;5014918;28;21149;-62
2022/09/07 03:49:32;;;;;;;19.20;13.37;;;19.80;41.60;;;;;;5004586;28;20460;-62
2022/09/07 03:52:00;;;;;;;15.53;13.60;;;19.80;41.20;;;;;;5003716;28;20490;-61
2022/09/07 03:54:27;;;;;;;23.10;13.57;;;19.80;41.10;;;;;;4999785;28;20456;-62
2022/09/07 03:56:53;;;;;;;17.57;13.40;;;19.80;41.10;;;;;;4999789;28;20483;-62
2022/09/07 03:59:20;;;;;;;18.17;13.97;;;19.70;41.10;;;;;;5005379;28;20479;-61
2022/09/07 04:01:47;;;;;;;16.90;13.73;;;19.70;40.90;;;;;;4991089;28;20479;-62
2022/09/07 04:04:14;;;;;;;21.03;13.70;;;19.70;40.90;;;;;;5000820;28;20502;-62
2022/09/07 04:06:40;;;;;;;17.90;14.00;;;19.70;40.80;;;;;;5005191;28;20978;-62
2022/09/07 04:09:12;;;;;;;19.27;14.13;;;19.70;40.90;;;;;;5004854;28;20498;-62
2022/09/07 04:11:40;;;;;;;18.87;13.33;;;19.60;40.90;;;;;;5005438;28;20464;-62
2022/09/07 04:14:07;;;;;;;21.27;13.93;;;19.60;41.00;;;;;;5001535;28;20517;-61
2022/09/07 04:16:34;;;;;;;21.17;12.90;;;19.60;41.00;;;;;;5001779;28;20524;-62
2022/09/07 04:19:01;;;;;;;16.70;13.50;;;19.60;40.90;;;;;;4998958;28;20514;-62
2022/09/07 04:21:30;;;;;;;17.47;13.37;;;19.60;41.00;;;;;;4997909;28;20464;-61
2022/09/07 04:23:57;;;;;;;19.03;13.47;;;19.60;40.90;;;;;;5001762;28;21048;-62
2022/09/07 04:26:27;;;;;;;18.57;13.77;;;19.60;41.00;;;;;;5000252;28;20479;-61
2022/09/07 04:28:54;;;;;;;18.47;13.70;;;19.60;41.00;;;;;;5004752;28;21219;-62
2022/09/07 04:31:22;;;;;;;17.00;13.17;;;19.60;40.90;;;;;;5006592;28;20640;-61
2022/09/07 04:33:50;;;;;;;21.70;14.97;;;19.60;41.10;;;;;;5000064;28;20970;-61
2022/09/07 04:36:18;;;;;;;18.30;13.03;;;19.60;41.20;;;;;;5000253;28;20464;-62
2022/09/07 04:38:45;;;;;;;17.40;13.43;;;19.60;41.00;;;;;;4996712;28;20856;-61
2022/09/07 04:41:14;;;;;;;17.60;13.37;;;19.50;41.00;;;;;;5007655;28;20452;-61
2022/09/07 04:43:43;;;;;;;18.37;14.07;;;19.50;41.00;;;;;;5006555;28;20480;-61
2022/09/07 04:46:14;;;;;;;15.87;12.40;;;19.50;41.90;;;;;;5024038;28;20960;-61
2022/09/07 04:48:41;;;;;;;19.50;13.07;;;19.50;41.30;;;;;;5005092;28;20487;-61
2022/09/07 04:51:10;;;;;;;21.70;13.90;;;19.40;41.10;;;;;;5007383;28;20483;-61
2022/09/07 04:53:38;;;;;;;18.23;13.53;;;19.40;41.10;;;;;;4999346;28;20460;-61
2022/09/07 04:56:05;;;;;;;23.63;13.57;;;19.40;41.10;;;;;;5001367;28;20460;-61
2022/09/07 04:58:32;;;;;;;18.03;13.30;;;19.40;41.00;;;;;;5006490;28;20507;-62
2022/09/07 05:01:02;;;;;;;19.90;12.43;;;19.40;41.00;;;;;;5006822;28;20478;-62
2022/09/07 05:03:29;;;;;;;18.10;13.50;;;19.30;41.20;;;;;;5006902;28;20488;-61
2022/09/07 05:05:56;;;;;;;17.60;13.47;;;19.30;41.00;;;;;;5004358;28;20475;-61
2022/09/07 05:08:23;;;;;;;16.80;12.57;;;19.30;41.00;;;;;;5003193;28;20472;-61
2022/09/07 05:10:54;;;;;;;17.57;13.07;;;19.30;41.10;;;;;;5000897;28;20502;-61
2022/09/07 05:13:21;;;;;;;14.90;11.33;;;19.30;41.00;;;;;;5022318;28;20467;-62
2022/09/07 05:15:48;;;;;;;18.70;12.30;;;19.20;40.90;;;;;;5005853;28;20979;-62
2022/09/07 05:18:16;;;;;;;16.37;11.13;;;19.20;40.80;;;;;;5006039;28;20507;-62
2022/09/07 05:20:42;;;;;;;20.60;12.37;;;19.20;40.90;;;;;;5006720;28;20452;-62
2022/09/07 05:23:09;;;;;;;13.70;11.03;;;19.20;40.70;;;;;;5006621;28;20456;-62
2022/09/07 05:25:43;;;;;;;13.60;11.23;;;19.20;40.80;;;;;;5005445;28;20483;-61
2022/09/07 05:28:10;;;;;;;12.73;9.13;;;19.20;40.70;;;;;;4997810;28;20574;-62
2022/09/07 05:30:37;;;;;;;16.07;11.37;;;19.10;40.80;;;;;;5006257;28;20480;-61
2022/09/07 05:33:03;;;;;;;15.43;10.17;;;19.10;40.80;;;;;;5002792;28;20948;-61
2022/09/07 05:35:32;;;;;;;13.93;10.43;;;19.10;40.70;;;;;;5005213;28;20506;-61
2022/09/07 05:37:58;;;;;;;14.03;10.70;;;19.10;40.50;;;;;;5006008;28;21002;-62
2022/09/07 05:40:25;;;;;;;14.10;10.30;;;19.20;40.40;;;;;;5006563;28;20456;-62
2022/09/07 05:42:52;;;;;;;14.70;9.90;;;19.20;40.40;;;;;;5006515;28;20830;-61
2022/09/07 05:45:18;;;;;;;18.83;11.03;;;19.20;40.30;;;;;;5001047;28;20490;-62
2022/09/07 05:47:49;;;;;;;16.60;10.07;;;19.30;40.30;;;;;;5013237;28;20479;-61
2022/09/07 05:50:17;;;;;;;12.30;9.60;;;19.40;40.30;;;;;;5005657;28;20488;-61
2022/09/07 05:52:46;;;;;;;15.87;10.73;;;19.60;39.90;;;;;;5006070;28;20995;-61
2022/09/07 05:55:13;;;;;;;12.60;9.00;;;19.70;39.60;;;;;;5005149;28;21003;-61
2022/09/07 05:57:40;;;;;;;12.67;9.23;;;20.00;39.10;;;;;;5005633;28;20563;-61
2022/09/07 06:00:07;;;;;;;15.40;10.90;;;20.20;38.30;;;;;;5005959;28;20459;-61
2022/09/07 06:02:34;;;;;;;13.37;9.30;;;20.50;37.70;;;;;;4996699;28;20457;-61
2022/09/07 06:05:01;;;;;;;14.10;10.00;;;20.70;36.90;;;;;;5004776;28;20940;-62
2022/09/07 06:07:28;;;;;;;14.80;9.30;;;21.10;36.40;;;;;;5004237;28;20476;-62
2022/09/07 06:09:56;;;;;;;11.27;9.20;;;21.70;35.30;;;;;;5004834;28;20968;-61
2022/09/07 06:12:22;;;;;;;11.53;8.90;;;22.40;33.00;;;;;;5005827;28;20986;-62
2022/09/07 06:14:49;;;;;;;12.73;8.17;;;23.40;30.30;;;;;;5004625;28;20456;-62
2022/09/07 06:17:16;;;;;;;12.40;8.93;;;24.40;27.10;;;;;;5005434;28;20459;-62
2022/09/07 06:19:42;;;;;;;11.43;8.37;;;25.40;23.40;;;;;;4997132;28;20463;-62
2022/09/07 06:22:09;;;;;;;9.50;8.10;;;25.90;21.40;;;;;;5004762;28;20464;-62
2022/09/07 06:24:36;;;;;;;13.30;8.30;;;26.60;19.70;;;;;;5004516;28;20840;-62
2022/09/07 06:27:04;;;;;;;11.20;7.70;;;27.10;18.60;;;;;;5001065;28;20453;-63
2022/09/07 06:29:31;;;;;;;10.90;7.40;;;27.90;16.50;;;;;;5063517;22;20509;-69
2022/09/07 06:31:58;;;;;;;10.97;7.87;;;29.10;14.80;;;;;;5105552;27;21049;-70
2022/09/07 06:34:25;;;;;;;9.90;7.40;;;30.30;12.30;;;;;;5094542;22;20483;-69
2022/09/07 06:36:51;;;;;;;12.80;7.27;;;30.70;10.50;;;;;;5106008;28;20482;-69
2022/09/07 06:39:18;;;;;;;9.63;6.50;;;31.10;10.30;;;;;;5104528;28;20451;-69
2022/09/07 06:41:45;;;;;;;9.80;5.87;;;31.20;9.30;;;;;;5105016;27;20455;-70
2022/09/07 06:44:13;;;;;;;8.37;5.90;;;30.60;9.70;;;;;;5095971;28;20474;-70
2022/09/07 06:46:40;;;;;;;8.60;5.83;;;29.80;10.80;;;;;;5097252;28;20466;-70
2022/09/07 06:49:07;;;;;;;9.73;5.60;;;29.10;12.10;;;;;;5097941;28;21121;-70
2022/09/07 06:51:33;;;;;;;11.80;6.10;;;28.40;13.10;;;;;;5104755;28;20463;-68
2022/09/07 06:54:01;;;;;;;12.30;6.23;;;27.80;14.10;;;;;;5096878;28;20568;-69
2022/09/07 06:56:28;;;;;;;7.40;5.70;;;27.20;15.50;;;;;;5105904;28;20935;-69
2022/09/07 06:58:55;;;;;;;7.57;5.50;;;26.60;16.30;;;;;;5104604;28;20466;-69
2022/09/07 07:01:24;;;;;;;10.70;5.30;;;26.20;17.30;;;;;;5097385;28;20472;-70
2022/09/07 07:03:53;;;;;;;10.87;5.40;;;25.80;18.10;;;;;;5100455;28;21169;-70
2022/09/07 07:06:20;;;;;;;10.87;5.90;;;25.40;19.00;;;;;;5108268;28;20471;-69
2022/09/07 07:08:47;;;;;;;14.40;5.03;;;25.10;20.00;;;;;;5102024;28;20451;-69
2022/09/07 07:11:15;;;;;;;9.40;5.07;;;24.90;20.90;;;;;;5104946;28;20546;-70
2022/09/07 07:13:43;;;;;;;11.97;5.13;;;24.80;21.50;;;;;;5105141;28;20854;-70
2022/09/07 07:16:11;;;;;;;10.53;4.77;;;24.60;21.70;;;;;;5104960;28;20448;-69
2022/09/07 07:18:40;;;;;;;8.20;4.10;;;24.40;22.00;;;;;;5106598;28;20459;-69
2022/09/07 07:21:08;;;;;;;6.40;3.93;;;24.30;22.50;;;;;;5099982;28;21005;-69
2022/09/07 07:23:36;;;;;;;11.43;5.50;;;24.10;23.00;;;;;;5098979;28;20485;-70
2022/09/07 07:26:03;;;;;;;11.50;4.87;;;23.90;23.70;;;;;;5101524;28;20482;-70
2022/09/07 07:28:30;;;;;;;13.10;4.50;;;23.80;24.10;;;;;;5096727;28;20475;-69
2022/09/07 07:30:57;;;;;;;8.43;4.53;;;23.80;24.70;;;;;;5098840;28;20480;-69
2022/09/07 07:33:24;;;;;;;8.90;4.30;;;23.80;24.90;;;;;;5098979;28;21018;-69
2022/09/07 07:35:52;;;;;;;14.20;4.50;;;24.30;24.60;;;;;;5110100;28;20966;-70
2022/09/07 07:38:18;;;;;;;8.77;4.60;;;24.70;23.00;;;;;;5102599;28;20460;-69
2022/09/07 07:40:52;;;;;;;8.33;4.00;;;24.80;22.60;;;;;;5109377;28;21173;-69
2022/09/07 07:43:19;;;;;;;7.33;3.97;;;24.90;22.50;;;;;;5105134;28;20482;-69
2022/09/07 07:45:46;;;;;;;6.33;3.50;;;25.10;22.10;;;;;;5103141;28;20480;-69
2022/09/07 07:48:12;;;;;;;8.30;4.10;;;25.60;20.90;;;;;;5109343;28;20465;-69
2022/09/07 07:50:40;;;;;;;10.03;3.10;;;26.50;19.10;;;;;;5107694;28;20996;-69
2022/09/07 07:53:08;;;;;;;7.97;3.47;;;27.40;17.00;;;;;;5099561;28;20470;-68
2022/09/07 07:55:37;;;;;;;8.70;3.70;;;27.70;15.60;;;;;;5100762;28;20463;-69
2022/09/07 07:58:03;;;;;;;6.20;3.23;;;27.70;15.30;;;;;;5104282;28;20451;-69
2022/09/07 08:00:30;;;;;;;5.30;2.73;;;27.80;15.10;;;;;;5107199;27;20990;-68
2022/09/07 08:02:57;;;;;;;6.77;2.83;;;28.30;14.80;;;;;;5105753;28;20475;-69
2022/09/07 08:05:23;;;;;;;9.10;3.13;;;29.90;12.90;;;;;;5107764;28;20474;-69
2022/09/07 08:07:50;;;;;;;6.80;3.53;;;33.00;8.60;;;;;;5109592;28;20455;-70
2022/09/07 08:10:18;;;;;;;6.00;2.73;;;36.10;4.00;;;;;;5109450;28;20533;-70
2022/09/07 08:12:46;;;;;;;4.57;2.57;;;38.20;1.00;;;;;;5108470;28;20900;-69
2022/09/07 08:15:12;;;;;;;3.80;1.60;;;39.90;1.00;;;;;;5099720;28;20452;-70
2022/09/07 08:17:39;;;;;;;6.80;2.70;;;41.50;1.00;;;;;;5104246;28;20880;-70
2022/09/07 08:20:07;;;;;;;5.50;2.57;;;42.90;1.00;;;;;;5106319;28;20451;-70
2022/09/07 08:22:34;;;;;;;5.47;2.00;;;44.00;1.00;;;;;;5100874;28;20833;-70
2022/09/07 08:25:01;;;;;;;7.83;2.67;;;44.70;1.00;;;;;;5105990;28;20483;-70
2022/09/07 08:27:29;;;;;;;7.07;2.33;;;45.00;1.00;;;;;;5099248;28;20462;-69
2022/09/07 08:29:55;;;;;;;5.63;2.43;;;45.20;1.00;;;;;;5103834;28;20459;-70
2022/09/07 08:32:22;;;;;;;9.17;2.37;;;45.90;1.00;;;;;;5101534;27;20987;-69
2022/09/07 08:34:49;;;;;;;4.03;1.73;;;47.00;1.00;;;;;;5103759;28;20515;-69
2022/09/07 08:37:16;;;;;;;7.20;2.57;;;47.80;1.00;;;;;;5110695;28;20499;-70
2022/09/07 08:39:43;;;;;;;6.33;2.17;;;48.30;1.00;;;;;;5108967;28;20463;-69
2022/09/07 08:42:37;;;;;;;4.60;2.10;;;49.00;1.00;;;;;;5098159;28;20464;-70
2022/09/07 08:45:11;;;;;;;5.50;2.50;;;49.50;1.00;;;;;;5099840;28;20512;-69
2022/09/07 08:47:42;;;;;;;5.50;1.90;;;49.90;1.00;;;;;;5095771;28;20463;-70
2022/09/07 08:50:14;;;;;;;6.73;2.10;;;50.00;1.00;;;;;;5104614;28;20453;-70
2022/09/07 08:52:48;;;;;;;4.27;2.13;;;49.90;1.00;;;;;;5106948;28;20998;-69
2022/09/07 08:55:19;;;;;;;7.40;2.40;;;49.80;1.00;;;;;;5098531;28;20819;-69
2022/09/07 08:57:50;;;;;;;3.80;1.87;;;50.00;1.00;;;;;;5102528;28;20505;-69
2022/09/07 09:00:21;;;;;;;5.83;1.80;;;50.20;1.00;;;;;;5107093;27;20444;-69
2022/09/07 09:02:48;;;;;;;4.43;1.60;;;50.20;1.00;;;;;;5103534;28;20503;-69
2022/09/07 09:05:21;;;;;;;5.03;2.10;;;50.30;1.00;;;;;;5102399;28;20476;-69
2022/09/07 09:07:56;;;;;;;4.60;1.90;;;50.40;1.00;;;;;;5112672;28;20458;-70
2022/09/07 09:10:33;;;;;;;5.73;2.10;;;50.60;1.00;;;;;;5095471;28;20462;-69
2022/09/07 09:13:04;;;;;;;7.53;2.50;;;50.00;1.00;;;;;;5105430;28;20475;-70
2022/09/07 09:15:47;;;;;;;4.50;1.83;;;49.80;1.00;;;;;;5098195;28;20447;-70
2022/09/07 09:18:27;;;;;;;5.07;2.37;;;50.20;1.00;;;;;;5102623;27;20451;-69
2022/09/07 09:20:56;;;;;;;4.23;1.80;;;50.60;1.00;;;;;;5105915;28;20463;-70
2022/09/07 09:23:26;;;;;;;5.87;2.00;;;51.00;1.00;;;;;;5101867;28;20491;-70
2022/09/07 09:25:55;;;;;;;6.20;1.93;;;51.40;1.00;;;;;;5108978;28;20509;-69
2022/09/07 09:28:22;;;;;;;7.07;2.33;;;51.80;1.00;;;;;;5100820;28;21224;-69
2022/09/07 09:30:50;;;;;;;6.10;2.20;;;52.30;1.00;;;;;;5103523;28;20463;-69
2022/09/07 09:33:19;;;;;;;5.20;1.80;;;52.60;1.00;;;;;;5105315;28;20841;-69
2022/09/07 09:35:49;;;;;;;5.33;1.77;;;52.50;1.00;;;;;;5096906;28;20452;-70
2022/09/07 09:38:31;;;;;;;7.13;2.40;;;52.60;1.00;;;;;;5100911;28;20459;-70
2022/09/07 09:41:00;;;;;;;6.03;2.03;;;52.60;1.00;;;;;;5095162;28;20456;-70
2022/09/07 09:43:34;;;;;;;5.90;1.90;;;52.20;1.00;;;;;;5103292;28;20478;-70
2022/09/07 09:46:02;;;;;;;9.63;2.70;;;52.30;1.00;;;;;;5103561;28;20494;-70
2022/09/07 09:48:33;;;;;;;7.50;2.13;;;52.20;1.00;;;;;;5097627;28;21096;-71
2022/09/07 09:51:02;;;;;;;5.03;1.67;;;51.90;1.00;;;;;;5105050;28;20835;-70
2022/09/07 09:53:32;;;;;;;5.33;1.80;;;51.40;1.00;;;;;;5100770;28;20490;-70
2022/09/07 09:56:01;;;;;;;5.27;1.83;;;51.10;1.00;;;;;;5095089;28;20851;-70
2022/09/07 09:58:31;;;;;;;5.10;2.50;;;50.70;1.00;;;;;;5097294;28;20827;-71
2022/09/07 10:01:00;;;;;;;6.13;2.23;;;49.90;1.00;;;;;;5105567;27;20498;-70
2022/09/07 10:03:29;;;;;;;4.50;1.57;;;49.40;1.00;;;;;;5102812;28;20467;-70
2022/09/07 10:05:57;;;;;;;4.63;2.07;;;49.20;1.00;;;;;;5101621;28;20468;-69
2022/09/07 10:08:27;;;;;;;4.77;1.90;;;49.10;1.00;;;;;;5094556;28;20459;-69
2022/09/07 10:10:59;;;;;;;8.40;2.37;;;48.50;1.00;;;;;;5101106;28;20818;-69
2022/09/07 10:13:30;;;;;;;9.30;2.40;;;48.90;1.00;;;;;;5099286;28;20482;-69
2022/09/07 10:15:58;;;;;;;7.07;2.10;;;49.40;1.00;;;;;;5097304;28;21126;-68
2022/09/07 10:18:31;;;;;;;5.47;2.03;;;50.00;1.00;;;;;;5097058;28;20463;-69
2022/09/07 10:21:22;;;;;;;6.17;2.33;;;49.50;1.00;;;;;;5098676;28;20456;-69
2022/09/07 10:23:54;;;;;;;5.60;2.10;;;49.10;1.00;;;;;;5101327;28;20745;-68
2022/09/07 10:26:28;;;;;;;7.30;2.27;;;49.20;1.00;;;;;;5100254;28;20525;-69
2022/09/07 10:29:08;;;;;;;5.70;2.10;;;49.20;1.00;;;;;;5100851;27;20488;-69
2022/09/07 10:31:40;;;;;;;6.57;2.40;;;49.30;1.00;;;;;;5093020;28;20472;-67
2022/09/07 10:34:14;;;;;;;6.67;2.30;;;50.00;1.00;;;;;;5097939;27;20480;-67
2022/09/07 10:36:48;;;;;;;5.67;2.10;;;49.90;1.00;;;;;;5097315;28;20450;-68
2022/09/07 10:39:18;;;;;;;5.67;2.20;;;49.60;1.00;;;;;;5097245;28;20443;-68
2022/09/07 10:41:54;;;;;;;5.50;2.37;;;49.60;1.00;;;;;;5097574;28;20483;-69
2022/09/07 10:44:30;;;;;;;5.53;1.90;;;50.00;1.00;;;;;;5095948;28;20476;-68
2022/09/07 10:47:02;;;;;;;5.00;2.00;;;49.90;1.00;;;;;;5098361;28;20476;-69
2022/09/07 10:49:38;;;;;;;8.03;2.07;;;49.80;1.00;;;;;;5097078;28;20473;-69
2022/09/07 10:52:15;;;;;;;5.40;2.20;;;49.40;1.00;;;;;;5097472;28;21113;-70
2022/09/07 10:54:50;;;;;;;6.37;2.00;;;49.40;1.00;;;;;;5098498;28;20975;-69
2022/09/07 10:57:31;;;;;;;6.97;2.27;;;47.70;1.00;;;;;;5102664;28;20505;-69
2022/09/07 11:00:05;;;;;;;5.97;2.37;;;46.90;1.00;;;;;;5096655;28;20462;-69
2022/09/07 11:02:44;;;;;;;9.20;1.90;;;47.50;1.00;;;;;;5096563;28;21060;-70
2022/09/07 11:05:26;;;;;;;5.73;2.70;;;47.90;1.00;;;;;;5099642;28;20489;-70
2022/09/07 11:08:07;;;;;;;5.90;2.10;;;47.70;1.00;;;;;;5095790;28;20459;-70
2022/09/07 11:10:41;;;;;;;4.20;1.87;;;47.20;1.00;;;;;;5104061;28;20455;-69
2022/09/07 11:13:15;;;;;;;4.47;1.67;;;46.10;1.00;;;;;;5105345;28;20471;-69
2022/09/07 11:15:45;;;;;;;6.93;2.20;;;44.90;1.00;;;;;;5102800;28;20871;-70
2022/09/07 11:18:18;;;;;;;5.80;2.10;;;43.70;1.00;;;;;;5102958;28;20836;-69
2022/09/07 11:20:54;;;;;;;5.23;2.00;;;42.50;1.00;;;;;;5104039;28;20844;-68
2022/09/07 11:23:26;;;;;;;3.97;1.90;;;41.20;1.00;;;;;;5095870;28;20479;-69
2022/09/07 11:26:01;;;;;;;6.80;2.40;;;40.10;1.00;;;;;;5099917;28;20471;-69
2022/09/07 11:28:38;;;;;;;6.67;1.83;;;39.00;1.00;;;;;;5102602;28;20495;-69
2022/09/07 11:31:15;;;;;;;7.70;2.07;;;38.10;1.00;;;;;;5097756;28;20482;-71
2022/09/07 11:33:53;;;;;;;5.83;1.90;;;37.40;1.00;;;;;;5096958;28;20478;-69
2022/09/07 11:36:24;;;;;;;4.70;1.37;;;36.80;1.00;;;;;;5105424;28;20467;-68
2022/09/07 11:38:57;;;;;;;4.20;1.57;;;36.10;1.00;;;;;;5101306;28;20554;-69
2022/09/07 11:41:27;;;;;;;8.50;1.97;;;35.50;1.00;;;;;;5099591;28;20467;-69
2022/09/07 11:44:01;;;;;;;6.50;1.70;;;35.20;1.00;;;;;;5094100;28;21010;-69
2022/09/07 11:46:33;;;;;;;9.00;2.00;;;34.90;1.00;;;;;;5096395;28;20476;-69
2022/09/07 11:49:01;;;;;;;7.17;1.80;;;34.70;1.00;;;;;;5093608;28;20448;-69
2022/09/07 11:51:39;;;;;;;7.23;2.07;;;34.40;1.00;;;;;;5104835;28;20448;-69
2022/09/07 11:54:19;;;;;;;5.10;1.77;;;34.10;1.00;;;;;;5105248;28;20732;-69
2022/09/07 11:56:51;;;;;;;6.40;2.10;;;33.90;1.00;;;;;;5103229;28;20974;-68
2022/09/07 11:59:36;;;;;;;7.20;2.47;;;33.60;1.00;;;;;;5101696;28;21084;-69
2022/09/07 12:02:22;;;;;;;7.50;2.27;;;33.40;1.20;;;;;;5096495;28;20463;-70
2022/09/07 12:05:13;;;;;;;5.40;2.00;;;33.20;1.40;;;;;;5098404;28;20456;-69
2022/09/07 12:08:11;;;;;;;8.80;2.07;;;33.10;1.80;;;;;;5098935;28;20475;-69
2022/09/07 12:10:54;;;;;;;6.10;2.30;;;32.80;1.70;;;;;;5098186;28;20464;-69
2022/09/07 12:13:50;;;;;;;8.70;2.50;;;32.60;3.00;;;;;;5100008;28;20475;-69
2022/09/07 12:16:23;;;;;;;6.50;2.17;;;32.30;3.30;;;;;;5097300;28;20451;-69
2022/09/07 12:19:12;;;;;;;5.80;2.20;;;32.10;4.40;;;;;;5101933;28;20489;-69
2022/09/07 12:21:42;;;;;;;5.80;2.30;;;32.00;3.50;;;;;;5095860;28;21218;-70
2022/09/07 12:24:33;;;;;;;7.33;2.23;;;31.80;3.20;;;;;;5101989;28;20481;-71
2022/09/07 12:27:01;;;;;;;6.00;2.17;;;31.60;3.30;;;;;;5097580;28;21037;-69
2022/09/07 12:29:29;;;;;;;4.87;2.23;;;31.50;4.20;;;;;;5104163;28;20462;-70
2022/09/07 12:31:57;;;;;;;7.83;2.23;;;31.40;2.90;;;;;;5099987;28;20484;-71
2022/09/07 12:34:51;;;;;;;4.57;1.97;;;31.20;2.50;;;;;;5105096;28;20489;-70
2022/09/07 12:37:42;;;;;;;6.50;2.67;;;31.00;2.80;;;;;;5105192;28;20924;-70
2022/09/07 12:40:44;;;;;;;4.63;2.20;;;30.80;3.30;;;;;;5093045;28;20452;-71
2022/09/07 12:43:49;;;;;;;6.13;1.87;;;30.60;3.90;;;;;;5101703;27;20494;-70
2022/09/07 12:46:41;;;;;;;5.37;2.10;;;30.30;3.90;;;;;;5076141;28;20578;-69
2022/09/07 12:49:29;;;;;;;6.23;1.50;;;30.20;4.00;;;;;;5097199;28;20451;-70
2022/09/07 12:52:04;;;;;;;6.90;2.33;;;30.00;4.30;;;;;;5095139;28;20466;-70
2022/09/07 12:54:37;;;;;;;8.90;2.50;;;29.90;5.00;;;;;;5101627;28;20587;-71
2022/09/07 12:57:23;;;;;;;9.83;2.40;;;29.70;3.80;;;;;;5100371;28;20450;-69
2022/09/07 13:00:05;;;;;;;5.10;1.80;;;29.70;4.20;;;;;;5103427;28;20535;-69
2022/09/07 13:02:54;;;;;;;4.93;1.60;;;29.60;4.10;;;;;;5092631;28;20894;-69